sensor_id;sensor_type;location;lat;lon;timestamp;pressure;altitude;pressure_sealevel;temperature;humidity
76358;BME280;65185;21.060;105.826;2023-07-29T00:01:53;100027.03;;;29.67;94.49
76358;BME280;65185;21.060;105.826;2023-07-29T00:04:20;100033.06;;;29.69;94.88
76358;BME280;65185;21.060;105.826;2023-07-29T00:06:46;100038.28;;;29.70;94.71
76358;BME280;65185;21.060;105.826;2023-07-29T00:09:13;100033.78;;;29.71;95.18
76358;BME280;65185;21.060;105.826;2023-07-29T00:11:39;100047.84;;;29.73;94.69
76358;BME280;65185;21.060;105.826;2023-07-29T00:14:06;100044.06;;;29.75;94.54
76358;BME280;65185;21.060;105.826;2023-07-29T00:16:32;100051.22;;;29.75;94.54
76358;BME280;65185;21.060;105.826;2023-07-29T00:18:58;100050.38;;;29.74;94.49
76358;BME280;65185;21.060;105.826;2023-07-29T00:21:25;100056.56;;;29.75;94.17
76358;BME280;65185;21.060;105.826;2023-07-29T00:23:51;100051.06;;;29.76;94.89
76358;BME280;65185;21.060;105.826;2023-07-29T00:26:18;100051.06;;;29.76;94.11
76358;BME280;65185;21.060;105.826;2023-07-29T00:28:44;100061.47;;;29.79;94.10
76358;BME280;65185;21.060;105.826;2023-07-29T00:31:11;100063.16;;;29.80;94.39
76358;BME280;65185;21.060;105.826;2023-07-29T00:33:37;100071.88;;;29.82;94.54
76358;BME280;65185;21.060;105.826;2023-07-29T00:36:04;100083.41;;;29.83;93.58
76358;BME280;65185;21.060;105.826;2023-07-29T00:38:30;100086.88;;;29.83;93.63
76358;BME280;65185;21.060;105.826;2023-07-29T00:41:02;100085.78;;;29.86;94.02
76358;BME280;65185;21.060;105.826;2023-07-29T00:43:29;100086.63;;;29.86;93.92
76358;BME280;65185;21.060;105.826;2023-07-29T00:45:56;100090.97;;;29.87;94.13
76358;BME280;65185;21.060;105.826;2023-07-29T00:48:24;100090.81;;;29.89;93.85
76358;BME280;65185;21.060;105.826;2023-07-29T00:50:51;100096.03;;;29.90;93.92
76358;BME280;65185;21.060;105.826;2023-07-29T00:53:17;100096.84;;;29.91;94.05
76358;BME280;65185;21.060;105.826;2023-07-29T00:55:44;100097.69;;;29.91;93.74
76358;BME280;65185;21.060;105.826;2023-07-29T00:58:11;100102.75;;;29.94;93.95
76358;BME280;65185;21.060;105.826;2023-07-29T01:00:38;100108.78;;;29.96;94.01
76358;BME280;65185;21.060;105.826;2023-07-29T01:03:05;100106.81;;;29.98;93.84
76358;BME280;65185;21.060;105.826;2023-07-29T01:06:23;100121.03;;;29.99;93.93
76358;BME280;65185;21.060;105.826;2023-07-29T01:08:31;100141.28;;;30.01;93.44
76358;BME280;65185;21.060;105.826;2023-07-29T01:14:21;100138.47;;;30.03;93.34
76358;BME280;65185;21.060;105.826;2023-07-29T01:16:53;100140.13;;;30.04;93.25
76358;BME280;65185;21.060;105.826;2023-07-29T01:22:07;100141.94;;;30.03;93.26
76358;BME280;65185;21.060;105.826;2023-07-29T01:24:34;100143.81;;;30.03;93.27
76358;BME280;65185;21.060;105.826;2023-07-29T01:27:01;100148.72;;;29.98;92.95
76358;BME280;65185;21.060;105.826;2023-07-29T01:29:31;100160.25;;;29.98;93.34
76358;BME280;65185;21.060;105.826;2023-07-29T01:32:04;100167.31;;;29.99;92.87
76358;BME280;65185;21.060;105.826;2023-07-29T01:34:41;100177.00;;;30.00;92.68
76358;BME280;65185;21.060;105.826;2023-07-29T01:37:19;100184.03;;;30.01;92.51
76358;BME280;65185;21.060;105.826;2023-07-29T01:39:50;100188.38;;;30.02;92.49
76358;BME280;65185;21.060;105.826;2023-07-29T01:42:17;100188.94;;;30.06;91.83
76358;BME280;65185;21.060;105.826;2023-07-29T01:44:43;100191.31;;;30.09;91.94
76358;BME280;65185;21.060;105.826;2023-07-29T01:47:10;100199.91;;;30.12;91.78
76358;BME280;65185;21.060;105.826;2023-07-29T01:49:37;100205.66;;;30.17;91.39
76358;BME280;65185;21.060;105.826;2023-07-29T01:52:04;100203.53;;;30.21;91.64
76358;BME280;65185;21.060;105.826;2023-07-29T01:54:30;100207.50;;;30.26;91.10
76358;BME280;65185;21.060;105.826;2023-07-29T01:56:56;100213.09;;;30.33;90.78
76358;BME280;65185;21.060;105.826;2023-07-29T01:59:23;100203.63;;;30.38;90.42
76358;BME280;65185;21.060;105.826;2023-07-29T02:01:49;100215.31;;;30.47;89.56
76358;BME280;65185;21.060;105.826;2023-07-29T02:04:16;100215.56;;;30.54;88.40
76358;BME280;65185;21.060;105.826;2023-07-29T02:06:45;100210.59;;;30.59;88.19
76358;BME280;65185;21.060;105.826;2023-07-29T02:09:11;100206.66;;;30.63;87.73
76358;BME280;65185;21.060;105.826;2023-07-29T02:11:38;100205.38;;;30.67;87.40
76358;BME280;65185;21.060;105.826;2023-07-29T02:14:04;100214.94;;;30.69;87.61
76358;BME280;65185;21.060;105.826;2023-07-29T02:16:31;100215.78;;;30.70;86.79
76358;BME280;65185;21.060;105.826;2023-07-29T02:18:58;100209.28;;;30.72;87.03
76358;BME280;65185;21.060;105.826;2023-07-29T02:21:25;100205.50;;;30.75;87.89
76358;BME280;65185;21.060;105.826;2023-07-29T02:23:51;100203.22;;;30.80;87.48
76358;BME280;65185;21.060;105.826;2023-07-29T02:26:18;100195.44;;;30.86;87.14
76358;BME280;65185;21.060;105.826;2023-07-29T02:28:44;100190.63;;;30.90;87.10
76358;BME280;65185;21.060;105.826;2023-07-29T02:31:23;100191.19;;;30.93;86.93
76358;BME280;65185;21.060;105.826;2023-07-29T02:33:50;100184.69;;;30.96;86.99
76358;BME280;65185;21.060;105.826;2023-07-29T02:36:17;100178.06;;;31.00;86.44
76358;BME280;65185;21.060;105.826;2023-07-29T02:38:44;100176.47;;;31.07;86.20
76358;BME280;65185;21.060;105.826;2023-07-29T02:41:11;100175.88;;;31.13;85.68
76358;BME280;65185;21.060;105.826;2023-07-29T02:43:42;100178.75;;;31.19;85.53
76358;BME280;65185;21.060;105.826;2023-07-29T02:46:09;100179.16;;;31.24;85.59
76358;BME280;65185;21.060;105.826;2023-07-29T02:48:35;100178.69;;;31.29;85.48
76358;BME280;65185;21.060;105.826;2023-07-29T02:51:02;100166.53;;;31.34;85.51
76358;BME280;65185;21.060;105.826;2023-07-29T02:53:28;100170.63;;;31.38;84.82
76358;BME280;65185;21.060;105.826;2023-07-29T02:55:55;100176.00;;;31.38;84.33
76358;BME280;65185;21.060;105.826;2023-07-29T02:58:21;100174.44;;;31.36;83.68
76358;BME280;65185;21.060;105.826;2023-07-29T03:00:48;100174.56;;;31.34;83.93
76358;BME280;65185;21.060;105.826;2023-07-29T03:03:14;100165.44;;;31.37;83.49
76358;BME280;65185;21.060;105.826;2023-07-29T03:05:41;100168.50;;;31.42;83.15
76358;BME280;65185;21.060;105.826;2023-07-29T03:08:07;100166.28;;;31.55;83.38
76358;BME280;65185;21.060;105.826;2023-07-29T03:10:35;100164.31;;;31.65;82.72
76358;BME280;65185;21.060;105.826;2023-07-29T03:13:04;100158.38;;;31.71;82.75
76358;BME280;65185;21.060;105.826;2023-07-29T03:15:31;100162.09;;;31.78;81.81
76358;BME280;65185;21.060;105.826;2023-07-29T03:17:59;100151.28;;;31.88;81.18
76358;BME280;65185;21.060;105.826;2023-07-29T03:20:26;100141.03;;;32.01;80.92
76358;BME280;65185;21.060;105.826;2023-07-29T03:22:52;100137.06;;;32.13;80.32
76358;BME280;65185;21.060;105.826;2023-07-29T03:25:19;100132.63;;;32.21;79.08
76358;BME280;65185;21.060;105.826;2023-07-29T03:27:45;100129.97;;;32.29;78.76
76358;BME280;65185;21.060;105.826;2023-07-29T03:30:15;100125.78;;;32.35;78.49
76358;BME280;65185;21.060;105.826;2023-07-29T03:32:43;100127.00;;;32.41;78.37
76358;BME280;65185;21.060;105.826;2023-07-29T03:35:11;100130.38;;;32.43;78.04
76358;BME280;65185;21.060;105.826;2023-07-29T03:37:38;100123.31;;;32.42;77.85
76358;BME280;65185;21.060;105.826;2023-07-29T03:40:05;100134.50;;;32.29;77.28
76358;BME280;65185;21.060;105.826;2023-07-29T03:42:32;100131.31;;;32.33;77.68
76358;BME280;65185;21.060;105.826;2023-07-29T03:44:59;100119.97;;;32.40;77.54
76358;BME280;65185;21.060;105.826;2023-07-29T03:47:25;100107.78;;;32.45;76.88
76358;BME280;65185;21.060;105.826;2023-07-29T03:49:52;100099.78;;;32.53;75.73
76358;BME280;65185;21.060;105.826;2023-07-29T03:52:18;100095.94;;;32.64;74.76
76358;BME280;65185;21.060;105.826;2023-07-29T03:54:44;100097.81;;;32.71;73.81
76358;BME280;65185;21.060;105.826;2023-07-29T03:57:11;100094.66;;;32.84;73.89
76358;BME280;65185;21.060;105.826;2023-07-29T03:59:37;100095.75;;;32.99;73.75
76358;BME280;65185;21.060;105.826;2023-07-29T04:02:04;100092.06;;;33.08;73.04
76358;BME280;65185;21.060;105.826;2023-07-29T04:04:31;100092.03;;;33.16;71.33
76358;BME280;65185;21.060;105.826;2023-07-29T04:06:57;100091.75;;;33.19;72.99
76358;BME280;65185;21.060;105.826;2023-07-29T04:09:24;100090.72;;;33.12;72.73
76358;BME280;65185;21.060;105.826;2023-07-29T04:11:51;100073.59;;;32.97;72.84
76358;BME280;65185;21.060;105.826;2023-07-29T04:14:18;100066.31;;;32.89;73.51
76358;BME280;65185;21.060;105.826;2023-07-29T04:16:45;100067.00;;;32.91;73.61
76358;BME280;65185;21.060;105.826;2023-07-29T04:19:11;100059.66;;;33.01;73.71
76358;BME280;65185;21.060;105.826;2023-07-29T04:21:38;100065.13;;;32.92;72.68
76358;BME280;65185;21.060;105.826;2023-07-29T04:24:04;100060.78;;;32.91;72.64
76358;BME280;65185;21.060;105.826;2023-07-29T04:26:31;100054.41;;;32.92;72.75
76358;BME280;65185;21.060;105.826;2023-07-29T04:28:57;100062.00;;;33.12;72.07
76358;BME280;65185;21.060;105.826;2023-07-29T04:31:24;100053.78;;;33.14;72.19
76358;BME280;65185;21.060;105.826;2023-07-29T04:33:51;100053.13;;;33.12;72.18
76358;BME280;65185;21.060;105.826;2023-07-29T04:36:17;100061.84;;;33.38;72.64
76358;BME280;65185;21.060;105.826;2023-07-29T04:38:44;100064.91;;;33.59;70.40
76358;BME280;65185;21.060;105.826;2023-07-29T04:41:10;100061.69;;;33.80;70.28
76358;BME280;65185;21.060;105.826;2023-07-29T04:43:37;100060.47;;;33.90;69.43
76358;BME280;65185;21.060;105.826;2023-07-29T04:46:06;100062.50;;;33.96;67.81
76358;BME280;65185;21.060;105.826;2023-07-29T04:48:34;100070.34;;;34.06;67.49
76358;BME280;65185;21.060;105.826;2023-07-29T04:51:00;100061.22;;;34.23;67.31
76358;BME280;65185;21.060;105.826;2023-07-29T04:53:27;100062.34;;;34.37;65.94
76358;BME280;65185;21.060;105.826;2023-07-29T04:55:53;100061.31;;;34.46;64.98
76358;BME280;65185;21.060;105.826;2023-07-29T04:58:20;100056.06;;;34.52;64.06
76358;BME280;65185;21.060;105.826;2023-07-29T05:00:47;100053.38;;;34.52;64.84
76358;BME280;65185;21.060;105.826;2023-07-29T05:03:13;100045.78;;;34.56;64.56
76358;BME280;65185;21.060;105.826;2023-07-29T05:05:40;100048.34;;;34.49;64.24
76358;BME280;65185;21.060;105.826;2023-07-29T05:08:06;100039.75;;;34.54;63.82
76358;BME280;65185;21.060;105.826;2023-07-29T05:10:34;100030.47;;;34.56;63.76
76358;BME280;65185;21.060;105.826;2023-07-29T05:13:01;100024.25;;;34.56;63.96
76358;BME280;65185;21.060;105.826;2023-07-29T05:15:27;100027.69;;;34.50;64.45
76358;BME280;65185;21.060;105.826;2023-07-29T05:17:54;100025.00;;;34.42;64.96
76358;BME280;65185;21.060;105.826;2023-07-29T05:20:20;100009.34;;;34.37;64.69
76358;BME280;65185;21.060;105.826;2023-07-29T05:22:46;100008.00;;;34.41;65.44
76358;BME280;65185;21.060;105.826;2023-07-29T05:25:13;100007.69;;;34.36;65.56
76358;BME280;65185;21.060;105.826;2023-07-29T05:27:40;99995.13;;;34.29;65.40
76358;BME280;65185;21.060;105.826;2023-07-29T05:30:08;99992.47;;;34.20;65.39
76358;BME280;65185;21.060;105.826;2023-07-29T05:32:34;99989.84;;;34.12;65.02
76358;BME280;65185;21.060;105.826;2023-07-29T05:35:01;99987.81;;;34.14;64.59
76358;BME280;65185;21.060;105.826;2023-07-29T05:37:27;99990.50;;;34.14;65.42
76358;BME280;65185;21.060;105.826;2023-07-29T05:39:53;99979.94;;;34.13;66.21
76358;BME280;65185;21.060;105.826;2023-07-29T05:42:20;99968.88;;;34.00;65.52
76358;BME280;65185;21.060;105.826;2023-07-29T05:44:46;99968.22;;;33.98;65.27
76358;BME280;65185;21.060;105.826;2023-07-29T05:47:13;99964.03;;;33.95;64.49
76358;BME280;65185;21.060;105.826;2023-07-29T05:49:39;99961.63;;;34.00;64.79
76358;BME280;65185;21.060;105.826;2023-07-29T05:52:06;99967.34;;;34.05;66.59
76358;BME280;65185;21.060;105.826;2023-07-29T05:54:33;99968.34;;;34.04;67.59
76358;BME280;65185;21.060;105.826;2023-07-29T05:56:59;99955.44;;;33.92;67.31
76358;BME280;65185;21.060;105.826;2023-07-29T05:59:26;99940.00;;;33.86;67.70
76358;BME280;65185;21.060;105.826;2023-07-29T06:01:55;99937.03;;;33.73;68.44
76358;BME280;65185;21.060;105.826;2023-07-29T06:04:22;99933.53;;;33.72;69.23
76358;BME280;65185;21.060;105.826;2023-07-29T06:06:49;99937.22;;;33.71;68.98
76358;BME280;65185;21.060;105.826;2023-07-29T06:09:16;99933.72;;;33.63;69.13
76358;BME280;65185;21.060;105.826;2023-07-29T06:11:43;99932.03;;;33.62;68.65
76358;BME280;65185;21.060;105.826;2023-07-29T06:14:09;99925.28;;;33.74;68.89
76358;BME280;65185;21.060;105.826;2023-07-29T06:16:36;99922.78;;;33.72;68.50
76358;BME280;65185;21.060;105.826;2023-07-29T06:19:03;99912.72;;;33.66;68.30
76358;BME280;65185;21.060;105.826;2023-07-29T06:21:29;99911.19;;;33.64;66.81
76358;BME280;65185;21.060;105.826;2023-07-29T06:23:56;99910.72;;;33.60;68.01
76358;BME280;65185;21.060;105.826;2023-07-29T06:26:23;99906.50;;;33.66;68.63
76358;BME280;65185;21.060;105.826;2023-07-29T06:28:49;99898.31;;;33.59;69.04
76358;BME280;65185;21.060;105.826;2023-07-29T06:31:16;99897.28;;;33.60;68.83
76358;BME280;65185;21.060;105.826;2023-07-29T06:33:42;99896.28;;;33.61;69.67
76358;BME280;65185;21.060;105.826;2023-07-29T06:36:09;99897.63;;;33.57;69.59
76358;BME280;65185;21.060;105.826;2023-07-29T06:38:35;99886.22;;;33.55;69.42
76358;BME280;65185;21.060;105.826;2023-07-29T06:41:02;99877.81;;;33.58;69.04
76358;BME280;65185;21.060;105.826;2023-07-29T06:43:29;99878.47;;;33.60;68.49
76358;BME280;65185;21.060;105.826;2023-07-29T06:45:55;99878.97;;;33.64;69.14
76358;BME280;65185;21.060;105.826;2023-07-29T06:48:22;99872.53;;;33.73;68.37
76358;BME280;65185;21.060;105.826;2023-07-29T06:50:49;99871.44;;;33.90;67.75
76358;BME280;65185;21.060;105.826;2023-07-29T06:53:16;99870.09;;;33.94;67.19
76358;BME280;65185;21.060;105.826;2023-07-29T06:55:43;99863.00;;;34.01;67.35
76358;BME280;65185;21.060;105.826;2023-07-29T06:58:10;99867.38;;;34.24;65.18
76358;BME280;65185;21.060;105.826;2023-07-29T07:00:37;99864.72;;;34.47;63.85
76358;BME280;65185;21.060;105.826;2023-07-29T07:03:03;99866.63;;;34.61;64.30
76358;BME280;65185;21.060;105.826;2023-07-29T07:05:30;99865.44;;;34.64;63.59
76358;BME280;65185;21.060;105.826;2023-07-29T07:07:56;99856.06;;;34.74;62.06
76358;BME280;65185;21.060;105.826;2023-07-29T07:10:23;99854.03;;;34.76;62.20
76358;BME280;65185;21.060;105.826;2023-07-29T07:12:49;99853.56;;;34.73;62.41
76358;BME280;65185;21.060;105.826;2023-07-29T07:15:16;99855.38;;;34.58;63.54
76358;BME280;65185;21.060;105.826;2023-07-29T07:17:42;99847.03;;;34.53;63.64
76358;BME280;65185;21.060;105.826;2023-07-29T07:20:09;99840.00;;;34.44;63.36
76358;BME280;65185;21.060;105.826;2023-07-29T07:22:36;99822.31;;;34.27;63.60
76358;BME280;65185;21.060;105.826;2023-07-29T07:25:02;99811.94;;;34.23;64.53
76358;BME280;65185;21.060;105.826;2023-07-29T07:27:29;99808.69;;;34.28;63.92
76358;BME280;65185;21.060;105.826;2023-07-29T07:29:56;99806.00;;;34.28;64.51
76358;BME280;65185;21.060;105.826;2023-07-29T07:32:22;99807.56;;;34.22;65.14
76358;BME280;65185;21.060;105.826;2023-07-29T07:34:49;99802.44;;;34.13;65.33
76358;BME280;65185;21.060;105.826;2023-07-29T07:37:15;99796.94;;;34.06;64.88
76358;BME280;65185;21.060;105.826;2023-07-29T07:39:42;99793.25;;;34.07;63.88
76358;BME280;65185;21.060;105.826;2023-07-29T07:42:08;99786.84;;;34.08;64.40
76358;BME280;65185;21.060;105.826;2023-07-29T07:44:35;99789.34;;;34.10;64.54
76358;BME280;65185;21.060;105.826;2023-07-29T07:47:01;99787.59;;;34.17;65.53
76358;BME280;65185;21.060;105.826;2023-07-29T07:49:28;99791.38;;;34.08;64.60
76358;BME280;65185;21.060;105.826;2023-07-29T07:51:54;99789.94;;;33.97;64.97
76358;BME280;65185;21.060;105.826;2023-07-29T07:54:21;99784.06;;;33.94;64.83
76358;BME280;65185;21.060;105.826;2023-07-29T07:56:47;99781.25;;;33.87;65.79
76358;BME280;65185;21.060;105.826;2023-07-29T07:59:13;99776.00;;;33.94;65.19
76358;BME280;65185;21.060;105.826;2023-07-29T08:01:40;99781.81;;;34.05;64.54
76358;BME280;65185;21.060;105.826;2023-07-29T08:04:07;99772.91;;;34.05;64.16
76358;BME280;65185;21.060;105.826;2023-07-29T08:06:33;99763.66;;;34.07;64.67
76358;BME280;65185;21.060;105.826;2023-07-29T08:09:01;99750.03;;;34.09;64.69
76358;BME280;65185;21.060;105.826;2023-07-29T08:11:28;99747.81;;;34.12;63.27
76358;BME280;65185;21.060;105.826;2023-07-29T08:13:54;99757.44;;;34.07;63.44
76358;BME280;65185;21.060;105.826;2023-07-29T08:16:21;99752.91;;;34.07;63.96
76358;BME280;65185;21.060;105.826;2023-07-29T08:18:47;99748.56;;;34.21;63.90
76358;BME280;65185;21.060;105.826;2023-07-29T08:21:14;99747.34;;;34.09;64.13
76358;BME280;65185;21.060;105.826;2023-07-29T08:23:40;99728.28;;;33.96;64.80
76358;BME280;65185;21.060;105.826;2023-07-29T08:26:07;99732.56;;;33.82;65.30
76358;BME280;65185;21.060;105.826;2023-07-29T08:28:38;99737.34;;;33.72;66.08
76358;BME280;65185;21.060;105.826;2023-07-29T08:31:06;99735.59;;;33.57;66.63
76358;BME280;65185;21.060;105.826;2023-07-29T08:33:32;99738.47;;;33.55;66.58
76358;BME280;65185;21.060;105.826;2023-07-29T08:35:59;99732.25;;;33.55;66.50
76358;BME280;65185;21.060;105.826;2023-07-29T08:38:26;99732.50;;;33.45;67.50
76358;BME280;65185;21.060;105.826;2023-07-29T08:41:14;99728.28;;;33.43;68.64
76358;BME280;65185;21.060;105.826;2023-07-29T08:44:12;99725.75;;;33.41;69.11
76358;BME280;65185;21.060;105.826;2023-07-29T08:46:39;99723.75;;;33.43;68.83
76358;BME280;65185;21.060;105.826;2023-07-29T08:49:06;99714.91;;;33.65;66.84
76358;BME280;65185;21.060;105.826;2023-07-29T08:51:33;99721.34;;;34.01;65.08
76358;BME280;65185;21.060;105.826;2023-07-29T08:54:01;99724.06;;;33.93;65.61
76358;BME280;65185;21.060;105.826;2023-07-29T08:56:28;99733.47;;;33.97;65.48
76358;BME280;65185;21.060;105.826;2023-07-29T08:58:56;99719.53;;;33.94;65.78
76358;BME280;65185;21.060;105.826;2023-07-29T09:01:23;99718.03;;;33.91;65.98
76358;BME280;65185;21.060;105.826;2023-07-29T09:03:49;99722.91;;;33.96;66.61
76358;BME280;65185;21.060;105.826;2023-07-29T09:06:16;99719.25;;;34.11;64.67
76358;BME280;65185;21.060;105.826;2023-07-29T09:08:44;99728.72;;;34.07;65.49
76358;BME280;65185;21.060;105.826;2023-07-29T09:11:13;99729.06;;;34.04;65.90
76358;BME280;65185;21.060;105.826;2023-07-29T09:13:43;99735.84;;;34.15;64.09
76358;BME280;65185;21.060;105.826;2023-07-29T09:16:09;99732.00;;;34.32;63.26
76358;BME280;65185;21.060;105.826;2023-07-29T09:18:36;99736.34;;;34.18;66.13
76358;BME280;65185;21.060;105.826;2023-07-29T09:21:04;99735.31;;;33.97;67.30
76358;BME280;65185;21.060;105.826;2023-07-29T09:23:43;99736.59;;;33.78;68.14
76358;BME280;65185;21.060;105.826;2023-07-29T09:26:10;99720.28;;;33.65;69.29
76358;BME280;65185;21.060;105.826;2023-07-29T09:28:38;99715.94;;;33.56;69.48
76358;BME280;65185;21.060;105.826;2023-07-29T09:31:05;99723.03;;;33.49;68.99
76358;BME280;65185;21.060;105.826;2023-07-29T09:33:36;99719.34;;;33.50;69.78
76358;BME280;65185;21.060;105.826;2023-07-29T09:36:11;99721.56;;;33.39;71.09
76358;BME280;65185;21.060;105.826;2023-07-29T09:38:38;99725.81;;;33.25;70.96
76358;BME280;65185;21.060;105.826;2023-07-29T09:41:05;99735.00;;;33.08;71.80
76358;BME280;65185;21.060;105.826;2023-07-29T09:43:33;99737.03;;;32.98;72.18
76358;BME280;65185;21.060;105.826;2023-07-29T09:46:01;99753.16;;;32.90;71.57
76358;BME280;65185;21.060;105.826;2023-07-29T09:48:27;99753.00;;;32.83;71.76
76358;BME280;65185;21.060;105.826;2023-07-29T09:50:57;99761.91;;;32.76;70.57
76358;BME280;65185;21.060;105.826;2023-07-29T09:53:24;99774.31;;;32.69;70.53
76358;BME280;65185;21.060;105.826;2023-07-29T09:55:53;99801.81;;;32.63;73.11
76358;BME280;65185;21.060;105.826;2023-07-29T09:58:26;99806.19;;;32.31;73.77
76358;BME280;65185;21.060;105.826;2023-07-29T10:00:53;99798.81;;;32.01;74.14
76358;BME280;65185;21.060;105.826;2023-07-29T10:03:21;99771.66;;;32.04;73.02
76358;BME280;65185;21.060;105.826;2023-07-29T10:05:48;99777.19;;;32.03;71.83
76358;BME280;65185;21.060;105.826;2023-07-29T10:08:16;99779.19;;;32.01;72.18
76358;BME280;65185;21.060;105.826;2023-07-29T10:10:44;99775.00;;;31.90;73.27
76358;BME280;65185;21.060;105.826;2023-07-29T10:13:11;99772.41;;;31.65;74.52
76358;BME280;65185;21.060;105.826;2023-07-29T10:15:39;99786.63;;;31.65;76.49
76358;BME280;65185;21.060;105.826;2023-07-29T10:18:07;99805.34;;;31.49;78.13
76358;BME280;65185;21.060;105.826;2023-07-29T10:20:34;99812.00;;;31.37;78.52
76358;BME280;65185;21.060;105.826;2023-07-29T10:23:02;99813.75;;;31.28;78.91
76358;BME280;65185;21.060;105.826;2023-07-29T10:25:38;99797.56;;;31.30;79.02
76358;BME280;65185;21.060;105.826;2023-07-29T10:28:07;99788.34;;;31.24;80.19
76358;BME280;65185;21.060;105.826;2023-07-29T10:30:34;99777.94;;;31.21;79.72
76358;BME280;65185;21.060;105.826;2023-07-29T10:33:04;99780.09;;;31.18;80.49
76358;BME280;65185;21.060;105.826;2023-07-29T10:35:35;99785.47;;;31.26;80.39
76358;BME280;65185;21.060;105.826;2023-07-29T10:38:03;99793.13;;;31.21;80.82
76358;BME280;65185;21.060;105.826;2023-07-29T10:40:53;99783.63;;;31.26;78.33
76358;BME280;65185;21.060;105.826;2023-07-29T10:46:16;99803.56;;;31.32;78.02
76358;BME280;65185;21.060;105.826;2023-07-29T10:48:55;99809.94;;;31.31;77.68
76358;BME280;65185;21.060;105.826;2023-07-29T10:53:57;99814.59;;;31.29;78.67
76358;BME280;65185;21.060;105.826;2023-07-29T10:56:34;99813.28;;;31.33;78.42
76358;BME280;65185;21.060;105.826;2023-07-29T11:01:50;99815.13;;;31.32;78.14
76358;BME280;65185;21.060;105.826;2023-07-29T11:09:51;99854.06;;;31.27;79.97
76358;BME280;65185;21.060;105.826;2023-07-29T11:15:12;99853.72;;;31.22;81.33
76358;BME280;65185;21.060;105.826;2023-07-29T11:17:41;99873.31;;;31.22;81.02
76358;BME280;65185;21.060;105.826;2023-07-29T11:20:08;99886.81;;;31.21;81.00
76358;BME280;65185;21.060;105.826;2023-07-29T11:22:36;99896.56;;;31.22;81.51
76358;BME280;65185;21.060;105.826;2023-07-29T11:25:04;99896.72;;;31.20;81.59
76358;BME280;65185;21.060;105.826;2023-07-29T11:27:31;99919.09;;;31.19;81.90
76358;BME280;65185;21.060;105.826;2023-07-29T11:30:03;99917.44;;;31.18;81.20
76358;BME280;65185;21.060;105.826;2023-07-29T11:32:31;99919.09;;;31.19;81.49
76358;BME280;65185;21.060;105.826;2023-07-29T11:35:09;99927.13;;;31.19;81.17
76358;BME280;65185;21.060;105.826;2023-07-29T11:37:38;99936.19;;;31.18;81.31
76358;BME280;65185;21.060;105.826;2023-07-29T11:40:05;99960.28;;;31.18;80.98
76358;BME280;65185;21.060;105.826;2023-07-29T11:42:38;99972.97;;;31.16;80.86
76358;BME280;65185;21.060;105.826;2023-07-29T11:45:08;99973.81;;;31.17;80.93
76358;BME280;65185;21.060;105.826;2023-07-29T11:47:36;99973.13;;;31.15;81.09
76358;BME280;65185;21.060;105.826;2023-07-29T11:50:04;99963.41;;;31.14;80.63
76358;BME280;65185;21.060;105.826;2023-07-29T11:52:33;99959.06;;;31.13;81.08
76358;BME280;65185;21.060;105.826;2023-07-29T11:55:01;99957.53;;;31.10;81.74
76358;BME280;65185;21.060;105.826;2023-07-29T11:57:28;99961.38;;;31.08;81.98
76358;BME280;65185;21.060;105.826;2023-07-29T11:59:55;99970.53;;;31.05;82.39
76358;BME280;65185;21.060;105.826;2023-07-29T12:02:23;99974.19;;;31.04;82.51
76358;BME280;65185;21.060;105.826;2023-07-29T12:04:52;99974.19;;;31.04;82.99
76358;BME280;65185;21.060;105.826;2023-07-29T12:07:19;99979.53;;;31.04;83.49
76358;BME280;65185;21.060;105.826;2023-07-29T12:09:46;99993.09;;;31.03;83.83
76358;BME280;65185;21.060;105.826;2023-07-29T12:12:13;100001.97;;;31.03;84.22
76358;BME280;65185;21.060;105.826;2023-07-29T12:14:44;100010.00;;;31.03;84.33
76358;BME280;65185;21.060;105.826;2023-07-29T12:17:11;100015.34;;;31.03;83.82
76358;BME280;65185;21.060;105.826;2023-07-29T12:19:39;100014.50;;;31.03;84.21
76358;BME280;65185;21.060;105.826;2023-07-29T12:22:09;100026.91;;;31.04;84.25
76358;BME280;65185;21.060;105.826;2023-07-29T12:24:38;100030.41;;;31.04;84.10
76358;BME280;65185;21.060;105.826;2023-07-29T12:27:05;100025.19;;;31.03;84.13
76358;BME280;65185;21.060;105.826;2023-07-29T12:29:39;100031.56;;;31.02;83.32
76358;BME280;65185;21.060;105.826;2023-07-29T12:32:05;100028.03;;;31.01;83.28
76358;BME280;65185;21.060;105.826;2023-07-29T12:34:33;100028.88;;;31.02;82.60
76358;BME280;65185;21.060;105.826;2023-07-29T12:36:59;100030.88;;;31.00;82.66
76358;BME280;65185;21.060;105.826;2023-07-29T12:39:30;100027.66;;;30.96;82.32
76358;BME280;65185;21.060;105.826;2023-07-29T12:41:59;100030.50;;;30.95;81.52
76358;BME280;65185;21.060;105.826;2023-07-29T12:44:31;100046.03;;;30.91;81.25
76358;BME280;65185;21.060;105.826;2023-07-29T12:46:58;100052.88;;;30.94;81.63
76358;BME280;65185;21.060;105.826;2023-07-29T12:49:24;100054.47;;;31.04;83.32
76358;BME280;65185;21.060;105.826;2023-07-29T12:51:51;100063.53;;;31.03;85.29
76358;BME280;65185;21.060;105.826;2023-07-29T12:54:17;100069.19;;;31.00;86.02
76358;BME280;65185;21.060;105.826;2023-07-29T12:56:44;100073.38;;;31.03;87.29
76358;BME280;65185;21.060;105.826;2023-07-29T12:59:10;100067.34;;;31.01;87.04
76358;BME280;65185;21.060;105.826;2023-07-29T13:01:37;100069.47;;;30.97;87.38